Back to Top

Language: 

My Weather Underground Personal Weather Station Historical Data with Graphs...

Delerius Weather Station Historical Data
Daily Summary for November 2, 2017 Units:  English    Metric   Both
« Previous Day
Next Day »
Daily Weekly Monthly Yearly Custom
  High: Low: Average:
Temperature: 51.6 °F 46.9 °F 49 °F
Dew Point: 49.2 °F 44.2 °F 45.7 °F
Humidity: 96 % 78 % 88 %
Wind Speed: 8.0 mph 0.0 mph 1.5 mph
Wind Gust: 12.0 mph - -
Wind:- - SW
Pressure: 30.02 in 29.91 in -
Precipitation: 0.02 in    
Historical Graphs
 
 
Tabular Data for November 2, 2017
Time Temperature Dew Point Pressure Wind Wind Speed Wind Gust Humidity Rainfall Rate (Hourly) solar Conditions
00:04 49.1 °F 46.9 °F 29.93 in WSW 1.0 mph 3.0 mph 92 % 0.00 in 0 W/m2
00:09 48.9 °F 46.7 °F 29.93 in Calm   2.0 mph 92 % 0.00 in 0 W/m2
00:14 48.7 °F 46.2 °F 29.93 in Calm   1.0 mph 91 % 0.00 in 0 W/m2
00:19 48.4 °F 45.9 °F 29.93 in WSW 3.0 mph 5.0 mph 91 % 0.00 in 0 W/m2
00:24 48.4 °F 46.2 °F 29.93 in West 3.0 mph 6.0 mph 92 % 0.00 in 0 W/m2
00:29 48.6 °F 46.6 °F 29.93 in SW 3.0 mph 6.0 mph 93 % 0.00 in 0 W/m2
00:34 48.7 °F 46.8 °F 29.92 in SW 2.0 mph 6.0 mph 93 % 0.00 in 0 W/m2
00:39 48.9 °F 47.3 °F 29.92 in SSW 3.0 mph 6.0 mph 94 % 0.00 in 0 W/m2
00:44 49.1 °F 47.2 °F 29.92 in Calm   1.0 mph 93 % 0.00 in 0 W/m2
00:49 49.1 °F 47.2 °F 29.92 in Calm   2.0 mph 93 % 0.00 in 0 W/m2
00:54 49.1 °F 47.2 °F 29.92 in SSW 2.0 mph 4.0 mph 93 % 0.00 in 0 W/m2
00:59 49.3 °F 47.3 °F 29.92 in Calm   2.0 mph 93 % 0.00 in 0 W/m2
01:04 49.3 °F 47.3 °F 29.92 in Calm     93 % 0.00 in 0 W/m2
01:09 49.5 °F 47.8 °F 29.92 in Calm   4.0 mph 94 % 0.00 in 0 W/m2
01:14 49.6 °F 48.0 °F 29.92 in Calm   2.0 mph 94 % 0.00 in 0 W/m2
01:19 49.8 °F 48.2 °F 29.93 in Calm   2.0 mph 94 % 0.00 in 0 W/m2
01:24 49.8 °F 48.2 °F 29.93 in Calm   4.0 mph 94 % 0.00 in 0 W/m2
01:29 50.0 °F 48.3 °F 29.93 in West 1.0 mph 3.0 mph 94 % 0.00 in 0 W/m2
01:34 50.2 °F 48.5 °F 29.92 in West 1.0 mph 3.0 mph 94 % 0.00 in 0 W/m2
01:39 50.4 °F 48.7 °F 29.92 in WNW 3.0 mph 6.0 mph 94 % 0.00 in 0 W/m2
01:44 50.5 °F 48.9 °F 29.92 in West 5.0 mph 9.0 mph 94 % 0.00 in 0 W/m2
01:49 50.7 °F 49.1 °F 29.92 in West 5.0 mph 8.0 mph 94 % 0.00 in 0 W/m2
01:54 50.9 °F 49.2 °F 29.92 in West 5.0 mph 8.0 mph 94 % 0.00 in 0 W/m2
01:59 51.1 °F 49.1 °F 29.92 in West 4.0 mph 7.0 mph 93 % 0.00 in 0 W/m2
02:05 51.1 °F 49.1 °F 29.92 in West 3.0 mph 6.0 mph 93 % 0.00 in 0 W/m2
02:10 51.1 °F 49.1 °F 29.92 in West 5.0 mph 8.0 mph 93 % 0.00 in 0 W/m2
02:15 51.1 °F 49.1 °F 29.92 in West 6.0 mph 10.0 mph 93 % 0.00 in 0 W/m2
02:21 51.1 °F 49.1 °F 29.92 in WNW 5.0 mph 10.0 mph 93 % 0.00 in 0 W/m2
02:26 51.1 °F 48.8 °F 29.92 in NW 3.0 mph 10.0 mph 92 % 0.00 in 0 W/m2
02:31 51.1 °F 48.8 °F 29.92 in Calm     92 % 0.00 in 0 W/m2
02:36 50.9 °F 48.7 °F 29.92 in Calm     92 % 0.00 in 0 W/m2
02:41 50.7 °F 48.5 °F 29.92 in NW 1.0 mph 4.0 mph 92 % 0.00 in 0 W/m2
02:46 50.5 °F 48.3 °F 29.92 in NW 1.0 mph 2.0 mph 92 % 0.00 in 0 W/m2
02:51 50.4 °F 48.1 °F 29.92 in Calm     92 % 0.00 in 0 W/m2
02:56 50.2 °F 47.9 °F 29.92 in Calm     92 % 0.00 in 0 W/m2
03:01 49.8 °F 47.3 °F 29.92 in Calm     91 % 0.00 in 0 W/m2
03:06 49.5 °F 46.9 °F 29.92 in Calm     91 % 0.00 in 0 W/m2
03:11 49.3 °F 47.1 °F 29.92 in Calm     92 % 0.00 in 0 W/m2
03:16 48.9 °F 46.7 °F 29.92 in Calm     92 % 0.00 in 0 W/m2
03:21 48.9 °F 46.7 °F 29.92 in Calm     92 % 0.00 in 0 W/m2
03:26 48.7 °F 46.8 °F 29.92 in Calm     93 % 0.00 in 0 W/m2
03:31 48.6 °F 46.3 °F 29.92 in Calm     92 % 0.00 in 0 W/m2
03:36 48.4 °F 46.2 °F 29.91 in Calm     92 % 0.00 in 0 W/m2
03:41 48.0 °F 46.1 °F 29.91 in WNW 2.0 mph 6.0 mph 93 % 0.00 in 0 W/m2
03:46 48.2 °F 46.3 °F 29.91 in WNW 1.0 mph 5.0 mph 93 % 0.00 in 0 W/m2
03:51 48.0 °F 46.1 °F 29.91 in WNW 2.0 mph 6.0 mph 93 % 0.00 in 0 W/m2
03:56 48.0 °F 46.1 °F 29.91 in WNW 3.0 mph 6.0 mph 93 % 0.00 in 0 W/m2
04:02 48.0 °F 46.4 °F 29.91 in WNW 3.0 mph 6.0 mph 94 % 0.00 in 0 W/m2
04:07 48.0 °F 46.4 °F 29.91 in WNW 3.0 mph 6.0 mph 94 % 0.00 in 0 W/m2
04:12 48.2 °F 46.6 °F 29.92 in NW 2.0 mph 5.0 mph 94 % 0.00 in 0 W/m2
04:17 48.4 °F 46.7 °F 29.92 in Calm   3.0 mph 94 % 0.00 in 0 W/m2
04:22 48.4 °F 46.7 °F 29.92 in Calm   4.0 mph 94 % 0.00 in 0 W/m2
04:27 48.4 °F 46.7 °F 29.92 in Calm     94 % 0.00 in 0 W/m2
04:32 48.4 °F 46.7 °F 29.92 in Calm     94 % 0.00 in 0 W/m2
04:34 48.2 °F 46.6 °F 29.92 in Calm     94 % 0.00 in 0 W/m2
04:39 48.0 °F 46.4 °F 29.92 in Calm     94 % 0.00 in 0 W/m2
04:44 48.0 °F 46.4 °F 29.92 in NW 2.0 mph 4.0 mph 94 % 0.00 in 0 W/m2
04:49 48.0 °F 46.4 °F 29.92 in NW 1.0 mph 4.0 mph 94 % 0.00 in 0 W/m2
04:52 47.8 °F 46.2 °F 29.92 in NW 2.0 mph 5.0 mph 94 % 0.00 in 0 W/m2
04:57 47.8 °F 46.2 °F 29.92 in NW 1.0 mph 3.0 mph 94 % 0.00 in 0 W/m2
05:02 47.7 °F 46.0 °F 29.92 in NW 1.0 mph 2.0 mph 94 % 0.00 in 0 W/m2
05:07 47.7 °F 46.0 °F 29.92 in NW 3.0 mph 5.0 mph 94 % 0.00 in 0 W/m2
05:12 47.7 °F 46.3 °F 29.92 in NW 3.0 mph 6.0 mph 95 % 0.00 in 0 W/m2
05:17 47.8 °F 46.5 °F 29.93 in WNW 3.0 mph 6.0 mph 95 % 0.00 in 0 W/m2
05:22 48.0 °F 46.7 °F 29.93 in NW 4.0 mph 6.0 mph 95 % 0.00 in 0 W/m2
05:27 48.6 °F 47.5 °F 29.93 in NW 4.0 mph 7.0 mph 96 % 0.00 in 0 W/m2
05:32 48.9 °F 47.8 °F 29.93 in NW 3.0 mph 6.0 mph 96 % 0.00 in 0 W/m2
05:37 49.1 °F 48.0 °F 29.93 in NNW 1.0 mph 3.0 mph 96 % 0.00 in 0 W/m2
05:42 49.3 °F 48.2 °F 29.93 in NNW 1.0 mph 5.0 mph 96 % 0.00 in 0 W/m2
05:47 49.5 °F 48.1 °F 29.94 in NNW 2.0 mph 6.0 mph 95 % 0.00 in 0 W/m2
05:52 49.5 °F 48.1 °F 29.94 in North 2.0 mph 5.0 mph 95 % 0.01 in 0 W/m2
05:57 49.5 °F 48.1 °F 29.94 in NNW 4.0 mph 8.0 mph 95 % 0.01 in 0 W/m2
06:02 49.5 °F 48.1 °F 29.94 in NNW 2.0 mph 7.0 mph 95 % 0.01 in 0 W/m2
06:07 49.3 °F 47.9 °F 29.94 in NNW 4.0 mph 8.0 mph 95 % 0.01 in 0 W/m2
06:12 49.1 °F 47.4 °F 29.94 in NW 4.0 mph 7.0 mph 94 % 0.01 in 0 W/m2
06:17 48.9 °F 47.3 °F 29.94 in Calm   3.0 mph 94 % 0.01 in 0 W/m2
06:23 48.9 °F 47.0 °F 29.94 in NW 3.0 mph 6.0 mph 93 % 0.01 in 0 W/m2
06:28 48.7 °F 46.8 °F 29.94 in NW 4.0 mph 7.0 mph 93 % 0.02 in 0 W/m2
06:33 48.7 °F 46.8 °F 29.94 in NNW 2.0 mph 5.0 mph 93 % 0.02 in 0 W/m2
06:38 48.7 °F 46.8 °F 29.95 in NNW 2.0 mph 6.0 mph 93 % 0.02 in 0 W/m2
06:43 48.7 °F 46.8 °F 29.95 in NW 3.0 mph 6.0 mph 93 % 0.02 in 0 W/m2
06:48 48.6 °F 46.6 °F 29.95 in NW 4.0 mph 6.0 mph 93 % 0.02 in 0 W/m2
06:53 48.7 °F 46.8 °F 29.95 in NW 1.0 mph 3.0 mph 93 % 0.01 in 0 W/m2
06:58 48.7 °F 46.8 °F 29.95 in NW 3.0 mph 7.0 mph 93 % 0.01 in 0 W/m2
07:03 48.7 °F 46.8 °F 29.96 in Calm   1.0 mph 93 % 0.01 in 0 W/m2
07:08 48.7 °F 46.8 °F 29.96 in NW 2.0 mph 5.0 mph 93 % 0.01 in 0 W/m2
07:13 48.7 °F 47.1 °F 29.96 in NW 4.0 mph 7.0 mph 94 % 0.01 in 0 W/m2
07:18 48.7 °F 47.1 °F 29.96 in WNW 3.0 mph 5.0 mph 94 % 0.01 in 5 W/m2
07:23 48.7 °F 47.1 °F 29.96 in WNW 1.0 mph 4.0 mph 94 % 0.00 in 9 W/m2
07:28 48.7 °F 47.1 °F 29.96 in Calm   2.0 mph 94 % 0.00 in 9 W/m2
07:33 48.6 °F 46.9 °F 29.96 in Calm   2.0 mph 94 % 0.00 in 14 W/m2
07:34 48.6 °F 46.9 °F 29.97 in Calm   1.0 mph 94 % 0.00 in 14 W/m2
07:44 48.6 °F 46.9 °F 29.97 in Calm   2.0 mph 94 % 0.00 in 19 W/m2
07:49 48.6 °F 46.9 °F 29.97 in Calm   1.0 mph 94 % 0.00 in 21 W/m2
07:59 48.4 °F 46.7 °F 29.97 in NW 1.0 mph 6.0 mph 94 % 0.00 in 25 W/m2
08:04 48.4 °F 46.7 °F 29.97 in NW 1.0 mph 6.0 mph 94 % 0.00 in 26 W/m2
08:09 48.4 °F 46.7 °F 29.98 in NW 3.0 mph 6.0 mph 94 % 0.00 in 28 W/m2
08:14 48.4 °F 46.7 °F 29.97 in Calm   2.0 mph 94 % 0.00 in 28 W/m2
08:19 48.4 °F 46.7 °F 29.98 in Calm   2.0 mph 94 % 0.00 in 28 W/m2
08:24 48.4 °F 46.7 °F 29.98 in Calm   1.0 mph 94 % 0.00 in 32 W/m2
08:29 48.4 °F 46.7 °F 29.98 in NW 2.0 mph 10.0 mph 94 % 0.00 in 33 W/m2
08:34 48.4 °F 46.4 °F 29.98 in North 3.0 mph 7.0 mph 93 % 0.00 in 40 W/m2
08:39 48.4 °F 46.2 °F 29.99 in North 4.0 mph 6.0 mph 92 % 0.00 in 35 W/m2
08:44 48.4 °F 46.2 °F 29.99 in North 4.0 mph 8.0 mph 92 % 0.00 in 37 W/m2
08:49 48.4 °F 46.2 °F 29.99 in NNW 3.0 mph 7.0 mph 92 % 0.00 in 37 W/m2
08:54 48.4 °F 45.9 °F 29.99 in NNW 3.0 mph 7.0 mph 91 % 0.00 in 32 W/m2
08:59 48.6 °F 46.1 °F 29.99 in NW 5.0 mph 10.0 mph 91 % 0.00 in 35 W/m2
09:04 48.6 °F 45.5 °F 29.99 in North 6.0 mph 10.0 mph 89 % 0.00 in 47 W/m2
09:09 48.6 °F 45.5 °F 29.99 in NNE 4.0 mph 7.0 mph 89 % 0.00 in 62 W/m2
09:14 48.6 °F 45.2 °F 29.99 in North 4.0 mph 8.0 mph 88 % 0.00 in 69 W/m2
09:19 48.7 °F 45.0 °F 29.99 in NNE 4.0 mph 8.0 mph 87 % 0.00 in 69 W/m2
09:24 48.7 °F 45.3 °F 30.00 in North 3.0 mph 5.0 mph 88 % 0.00 in 79 W/m2
09:29 48.9 °F 45.5 °F 30.00 in NNW 2.0 mph 5.0 mph 88 % 0.00 in 91 W/m2
09:34 48.9 °F 45.2 °F 30.00 in North 4.0 mph 6.0 mph 87 % 0.00 in 95 W/m2
09:39 48.9 °F 44.9 °F 30.00 in NNW 7.0 mph 11.0 mph 86 % 0.00 in 104 W/m2
09:44 49.1 °F 45.1 °F 30.00 in NNW 4.0 mph 7.0 mph 86 % 0.00 in 105 W/m2
09:49 49.3 °F 45.3 °F 30.00 in North 5.0 mph 8.0 mph 86 % 0.00 in 97 W/m2
09:54 49.3 °F 45.3 °F 30.01 in NNW 5.0 mph 8.0 mph 86 % 0.00 in 93 W/m2
09:59 49.3 °F 45.0 °F 30.01 in North 6.0 mph 10.0 mph 85 % 0.00 in 100 W/m2
10:04 49.3 °F 45.0 °F 30.01 in NNW 3.0 mph 8.0 mph 85 % 0.00 in 100 W/m2
10:09 49.3 °F 45.0 °F 30.01 in North 5.0 mph 8.0 mph 85 % 0.00 in 104 W/m2
10:14 49.3 °F 45.0 °F 30.01 in North 6.0 mph 9.0 mph 85 % 0.00 in 102 W/m2
10:19 49.3 °F 45.0 °F 30.01 in North 1.0 mph 5.0 mph 85 % 0.00 in 111 W/m2
10:24 49.5 °F 45.4 °F 30.01 in North 4.0 mph 7.0 mph 86 % 0.00 in 105 W/m2
10:29 49.5 °F 45.4 °F 30.01 in NNW 3.0 mph 6.0 mph 86 % 0.00 in 120 W/m2
10:34 49.5 °F 45.1 °F 30.01 in NNW 2.0 mph 6.0 mph 85 % 0.00 in 120 W/m2
10:39 49.6 °F 45.3 °F 30.01 in North 1.0 mph 5.0 mph 85 % 0.00 in 121 W/m2
10:44 49.6 °F 45.3 °F 30.01 in NNW 3.0 mph 7.0 mph 85 % 0.00 in 127 W/m2
10:49 49.6 °F 45.3 °F 30.01 in NNW 2.0 mph 5.0 mph 85 % 0.00 in 125 W/m2
10:54 49.8 °F 45.5 °F 30.01 in NNW 2.0 mph 5.0 mph 85 % 0.00 in 135 W/m2
11:00 49.8 °F 45.2 °F 30.01 in NNW 3.0 mph 9.0 mph 84 % 0.00 in 144 W/m2
11:05 49.8 °F 45.2 °F 30.01 in NW 3.0 mph 6.0 mph 84 % 0.00 in 169 W/m2
11:10 50.2 °F 45.8 °F 30.01 in NW 3.0 mph 6.0 mph 85 % 0.00 in 207 W/m2
11:15 50.5 °F 46.2 °F 30.01 in NNW 2.0 mph 6.0 mph 85 % 0.00 in 555 W/m2
11:20 51.1 °F 46.4 °F 30.01 in North 4.0 mph 8.0 mph 84 % 0.00 in 585 W/m2
11:25 51.4 °F 46.4 °F 30.01 in NNW 6.0 mph 9.0 mph 83 % 0.00 in 450 W/m2
11:30 51.6 °F 46.0 °F 30.00 in NNE 8.0 mph 12.0 mph 81 % 0.00 in 139 W/m2
11:35 51.4 °F 45.5 °F 30.00 in NNE 7.0 mph 11.0 mph 80 % 0.00 in 362 W/m2
11:40 51.3 °F 45.6 °F 30.00 in NNE 4.0 mph 8.0 mph 81 % 0.00 in 418 W/m2
11:45 51.3 °F 45.6 °F 30.00 in NNE 4.0 mph 8.0 mph 81 % 0.00 in 425 W/m2
11:50 51.4 °F 45.8 °F 30.00 in NNE 5.0 mph 9.0 mph 81 % 0.00 in 445 W/m2
11:55 51.3 °F 45.3 °F 30.00 in NNE 7.0 mph 10.0 mph 80 % 0.00 in 97 W/m2
12:01 51.1 °F 45.5 °F 30.00 in North 3.0 mph 10.0 mph 81 % 0.00 in 114 W/m2
12:06 50.7 °F 45.1 °F 30.00 in NE 3.0 mph 8.0 mph 81 % 0.00 in 148 W/m2
12:11 50.7 °F 45.1 °F 30.01 in NNE 5.0 mph 8.0 mph 81 % 0.00 in 84 W/m2
12:16 50.5 °F 44.9 °F 30.01 in NNE 5.0 mph 7.0 mph 81 % 0.00 in 86 W/m2
12:21 50.4 °F 44.7 °F 30.00 in NNE 3.0 mph 6.0 mph 81 % 0.00 in 118 W/m2
12:26 50.4 °F 44.7 °F 30.00 in NE 2.0 mph 5.0 mph 81 % 0.00 in 153 W/m2
12:31 50.5 °F 44.9 °F 30.01 in Calm   1.0 mph 81 % 0.00 in 144 W/m2
12:36 50.7 °F 45.1 °F 30.01 in North 3.0 mph 7.0 mph 81 % 0.00 in 127 W/m2
12:41 50.7 °F 44.8 °F 30.01 in NNE 4.0 mph 6.0 mph 80 % 0.00 in 134 W/m2
12:46 50.9 °F 45.3 °F 30.01 in North 2.0 mph 6.0 mph 81 % 0.00 in 137 W/m2
12:51 50.9 °F 44.9 °F 30.01 in NE 3.0 mph 6.0 mph 80 % 0.00 in 142 W/m2
12:56 51.1 °F 45.1 °F 30.01 in Calm   3.0 mph 80 % 0.00 in 123 W/m2
13:01 51.1 °F 45.1 °F 30.01 in NNE 2.0 mph 8.0 mph 80 % 0.00 in 95 W/m2
13:06 51.1 °F 45.1 °F 30.00 in NNE 1.0 mph 4.0 mph 80 % 0.00 in 84 W/m2
13:11 51.1 °F 45.1 °F 30.01 in North 1.0 mph 3.0 mph 80 % 0.00 in 104 W/m2
13:16 50.9 °F 44.6 °F 30.01 in North 4.0 mph 7.0 mph 79 % 0.00 in 102 W/m2
13:21 50.9 °F 44.9 °F 30.00 in NE 1.0 mph 3.0 mph 80 % 0.00 in 104 W/m2
13:26 50.9 °F 44.9 °F 30.00 in NNE 1.0 mph 5.0 mph 80 % 0.00 in 127 W/m2
13:31 50.7 °F 44.8 °F 30.01 in NE 4.0 mph 6.0 mph 80 % 0.00 in 128 W/m2
13:36 50.9 °F 44.9 °F 30.00 in North 3.0 mph 6.0 mph 80 % 0.00 in 139 W/m2
13:41 50.9 °F 44.9 °F 30.00 in North 4.0 mph 6.0 mph 80 % 0.00 in 142 W/m2
13:46 51.1 °F 45.1 °F 30.00 in North 3.0 mph 5.0 mph 80 % 0.00 in 132 W/m2
13:51 51.1 °F 44.8 °F 30.00 in Calm   2.0 mph 79 % 0.00 in 111 W/m2
13:56 51.1 °F 44.8 °F 30.00 in North 1.0 mph 4.0 mph 79 % 0.00 in 98 W/m2
14:01 51.1 °F 44.5 °F 30.00 in North 3.0 mph 5.0 mph 78 % 0.00 in 79 W/m2
14:02 51.1 °F 44.5 °F 30.00 in NNE 2.0 mph 5.0 mph 78 % 0.00 in 76 W/m2
14:07 51.1 °F 44.5 °F 30.00 in North 2.0 mph 5.0 mph 78 % 0.00 in 62 W/m2
14:12 50.9 °F 44.3 °F 30.00 in Calm     78 % 0.00 in 53 W/m2
14:17 50.9 °F 44.3 °F 30.00 in Calm     78 % 0.00 in 49 W/m2
14:22 50.7 °F 44.4 °F 30.00 in Calm     79 % 0.00 in 42 W/m2
14:27 50.9 °F 44.6 °F 30.00 in Calm     79 % 0.00 in 37 W/m2
14:32 50.9 °F 44.6 °F 30.00 in Calm     79 % 0.00 in 33 W/m2
14:37 50.7 °F 44.4 °F 30.00 in North 1.0 mph 4.0 mph 79 % 0.00 in 32 W/m2
14:42 50.7 °F 44.4 °F 30.00 in NNE 1.0 mph 3.0 mph 79 % 0.00 in 26 W/m2
14:47 50.7 °F 44.4 °F 30.00 in Calm     79 % 0.00 in 25 W/m2
14:52 50.5 °F 44.3 °F 30.00 in Calm     79 % 0.00 in 25 W/m2
14:57 50.5 °F 44.3 °F 30.01 in Calm   2.0 mph 79 % 0.00 in 23 W/m2
15:02 50.5 °F 44.6 °F 30.01 in Calm   2.0 mph 80 % 0.00 in 21 W/m2
15:08 50.4 °F 44.4 °F 30.01 in Calm   1.0 mph 80 % 0.00 in 21 W/m2
15:13 50.4 °F 44.4 °F 30.00 in NNE 2.0 mph 5.0 mph 80 % 0.00 in 21 W/m2
15:18 50.2 °F 44.2 °F 30.00 in NNE 1.0 mph 3.0 mph 80 % 0.00 in 19 W/m2
15:23 50.2 °F 44.2 °F 30.00 in NNE 2.0 mph 4.0 mph 80 % 0.00 in 21 W/m2
15:28 50.2 °F 44.6 °F 30.00 in NNE 1.0 mph 2.0 mph 81 % 0.00 in 19 W/m2
15:33 50.0 °F 44.4 °F 30.01 in Calm   1.0 mph 81 % 0.00 in 19 W/m2
15:38 50.0 °F 44.4 °F 30.01 in Calm     81 % 0.00 in 21 W/m2
15:43 49.8 °F 44.2 °F 30.00 in Calm     81 % 0.00 in 23 W/m2
15:48 49.8 °F 44.5 °F 30.00 in Calm     82 % 0.00 in 19 W/m2
15:53 49.8 °F 44.5 °F 30.00 in NE 3.0 mph 5.0 mph 82 % 0.00 in 18 W/m2
15:58 49.6 °F 44.4 °F 30.00 in NE 3.0 mph 6.0 mph 82 % 0.00 in 16 W/m2
16:03 49.6 °F 44.4 °F 30.00 in ENE 3.0 mph 6.0 mph 82 % 0.00 in 12 W/m2
16:08 49.6 °F 44.4 °F 30.00 in NE 3.0 mph 5.0 mph 82 % 0.00 in 9 W/m2
16:13 49.6 °F 44.4 °F 30.00 in Calm   2.0 mph 82 % 0.00 in 7 W/m2
16:18 49.6 °F 44.4 °F 30.01 in Calm     82 % 0.00 in 5 W/m2
16:23 49.5 °F 44.5 °F 30.01 in ENE 1.0 mph 2.0 mph 83 % 0.00 in 0 W/m2
16:28 49.5 °F 44.5 °F 30.01 in Calm     83 % 0.00 in 0 W/m2
16:33 49.5 °F 44.5 °F 30.01 in Calm     83 % 0.00 in 0 W/m2
16:38 49.5 °F 44.5 °F 30.01 in Calm     83 % 0.00 in 0 W/m2
16:43 49.3 °F 44.6 °F 30.01 in Calm     84 % 0.00 in 0 W/m2
16:48 49.3 °F 44.6 °F 30.01 in Calm     84 % 0.00 in 0 W/m2
16:53 49.3 °F 44.6 °F 30.01 in Calm     84 % 0.00 in 0 W/m2
16:58 49.1 °F 44.5 °F 30.01 in Calm     84 % 0.00 in 0 W/m2
17:03 49.1 °F 44.5 °F 30.01 in Calm     84 % 0.00 in 0 W/m2
17:08 48.9 °F 44.6 °F 30.01 in Calm     85 % 0.00 in 0 W/m2
17:13 48.9 °F 44.6 °F 30.01 in Calm     85 % 0.00 in 0 W/m2
17:18 48.9 °F 44.6 °F 30.01 in NW 1.0 mph 2.0 mph 85 % 0.00 in 0 W/m2
17:23 48.7 °F 44.7 °F 30.01 in Calm     86 % 0.00 in 0 W/m2
17:28 48.7 °F 44.7 °F 30.01 in Calm     86 % 0.00 in 0 W/m2
17:33 48.7 °F 44.7 °F 30.01 in Calm   2.0 mph 86 % 0.00 in 0 W/m2
17:38 48.6 °F 44.6 °F 30.01 in Calm     86 % 0.00 in 0 W/m2
17:43 48.6 °F 44.6 °F 30.01 in Calm     86 % 0.00 in 0 W/m2
17:48 48.6 °F 44.6 °F 30.01 in Calm   1.0 mph 86 % 0.00 in 0 W/m2
17:53 48.6 °F 44.9 °F 30.02 in Calm     87 % 0.00 in 0 W/m2
17:58 48.6 °F 44.9 °F 30.01 in Calm     87 % 0.00 in 0 W/m2
18:03 48.6 °F 44.9 °F 30.01 in Calm     87 % 0.00 in 0 W/m2
18:08 48.4 °F 44.7 °F 30.02 in Calm     87 % 0.00 in 0 W/m2
18:13 48.4 °F 44.7 °F 30.02 in Calm     87 % 0.00 in 0 W/m2
18:18 48.2 °F 44.8 °F 30.01 in NNE 1.0 mph 4.0 mph 88 % 0.00 in 0 W/m2
18:23 48.2 °F 44.8 °F 30.01 in ENE 2.0 mph 4.0 mph 88 % 0.00 in 0 W/m2
18:28 48.2 °F 44.8 °F 30.01 in Calm   2.0 mph 88 % 0.00 in 0 W/m2
18:33 48.2 °F 44.8 °F 30.02 in SW 3.0 mph 6.0 mph 88 % 0.00 in 0 W/m2
18:38 48.2 °F 44.8 °F 30.02 in South 4.0 mph 7.0 mph 88 % 0.00 in 0 W/m2
18:43 48.0 °F 44.3 °F 30.02 in Calm     87 % 0.00 in 0 W/m2
18:48 48.0 °F 44.3 °F 30.02 in Calm     87 % 0.00 in 0 W/m2
18:53 48.2 °F 44.8 °F 30.02 in South 2.0 mph 4.0 mph 88 % 0.00 in 0 W/m2
18:58 48.2 °F 44.8 °F 30.01 in Calm     88 % 0.00 in 0 W/m2
19:03 48.4 °F 44.7 °F 30.01 in Calm     87 % 0.00 in 0 W/m2
19:08 48.2 °F 44.5 °F 30.02 in Calm     87 % 0.00 in 0 W/m2
19:13 48.2 °F 44.5 °F 30.02 in Calm     87 % 0.00 in 0 W/m2
19:18 48.0 °F 44.3 °F 30.02 in Calm     87 % 0.00 in 0 W/m2
19:23 48.0 °F 44.3 °F 30.02 in Calm     87 % 0.00 in 0 W/m2
19:28 48.0 °F 44.3 °F 30.01 in Calm     87 % 0.00 in 0 W/m2
19:33 47.8 °F 44.5 °F 30.01 in Calm     88 % 0.00 in 0 W/m2
19:38 47.8 °F 44.5 °F 30.01 in Calm     88 % 0.00 in 0 W/m2
19:43 47.8 °F 44.5 °F 30.02 in Calm     88 % 0.00 in 0 W/m2
19:48 47.7 °F 44.3 °F 30.02 in Calm     88 % 0.00 in 0 W/m2
19:54 47.7 °F 44.3 °F 30.02 in Calm     88 % 0.00 in 0 W/m2
19:59 47.7 °F 44.6 °F 30.02 in Calm     89 % 0.00 in 0 W/m2
20:04 47.7 °F 44.6 °F 30.01 in Calm     89 % 0.00 in 0 W/m2
20:09 47.7 °F 44.6 °F 30.01 in Calm     89 % 0.00 in 0 W/m2
20:14 47.7 °F 44.6 °F 30.01 in Calm     89 % 0.00 in 0 W/m2
20:19 47.7 °F 44.6 °F 30.02 in Calm     89 % 0.00 in 0 W/m2
20:24 47.7 °F 44.6 °F 30.01 in Calm     89 % 0.00 in 0 W/m2
20:29 47.7 °F 44.6 °F 30.01 in Calm     89 % 0.00 in 0 W/m2
20:34 47.5 °F 44.4 °F 30.01 in Calm     89 % 0.00 in 0 W/m2
20:39 47.5 °F 44.7 °F 30.01 in Calm     90 % 0.00 in 0 W/m2
20:44 47.5 °F 44.7 °F 30.01 in Calm     90 % 0.00 in 0 W/m2
20:49 47.5 °F 44.7 °F 30.01 in Calm     90 % 0.00 in 0 W/m2
20:54 47.5 °F 44.4 °F 30.01 in East 3.0 mph 5.0 mph 89 % 0.00 in 0 W/m2
20:59 47.5 °F 44.4 °F 30.01 in Calm     89 % 0.00 in 0 W/m2
21:04 47.5 °F 44.7 °F 30.01 in Calm   2.0 mph 90 % 0.00 in 0 W/m2
21:09 47.5 °F 44.7 °F 30.01 in Calm     90 % 0.00 in 0 W/m2
21:14 47.5 °F 44.7 °F 30.02 in SSW 2.0 mph 6.0 mph 90 % 0.00 in 0 W/m2
21:19 47.5 °F 44.7 °F 30.02 in Calm   2.0 mph 90 % 0.00 in 0 W/m2
21:24 47.5 °F 44.7 °F 30.02 in Calm     90 % 0.00 in 0 W/m2
21:29 47.3 °F 44.5 °F 30.01 in Calm     90 % 0.00 in 0 W/m2
21:34 47.1 °F 44.3 °F 30.01 in Calm     90 % 0.00 in 0 W/m2
21:39 47.1 °F 44.3 °F 30.01 in Calm     90 % 0.00 in 0 W/m2
21:44 47.1 °F 44.3 °F 30.01 in Calm     90 % 0.00 in 0 W/m2
21:49 47.1 °F 44.3 °F 30.01 in Calm     90 % 0.00 in 0 W/m2
21:55 47.1 °F 44.6 °F 30.01 in Calm     91 % 0.00 in 0 W/m2
22:00 47.1 °F 44.6 °F 30.01 in Calm     91 % 0.00 in 0 W/m2
22:05 47.1 °F 44.6 °F 30.01 in Calm   1.0 mph 91 % 0.00 in 0 W/m2
22:10 47.1 °F 44.6 °F 30.01 in Calm     91 % 0.00 in 0 W/m2
22:15 47.1 °F 44.6 °F 30.01 in Calm     91 % 0.00 in 0 W/m2
22:20 47.1 °F 44.6 °F 30.00 in Calm     91 % 0.00 in 0 W/m2
22:25 47.1 °F 44.6 °F 30.00 in Calm     91 % 0.00 in 0 W/m2
22:30 46.9 °F 44.4 °F 30.00 in Calm   1.0 mph 91 % 0.00 in 0 W/m2
22:35 47.1 °F 44.6 °F 30.00 in Calm     91 % 0.00 in 0 W/m2
22:40 47.1 °F 44.6 °F 30.00 in Calm     91 % 0.00 in 0 W/m2
22:45 47.1 °F 44.6 °F 30.00 in Calm     91 % 0.00 in 0 W/m2
22:50 47.1 °F 44.6 °F 30.00 in Calm     91 % 0.00 in 0 W/m2
22:55 47.1 °F 44.6 °F 30.00 in Calm     91 % 0.00 in 0 W/m2
23:00 46.9 °F 44.4 °F 30.00 in Calm     91 % 0.00 in 0 W/m2
23:05 46.9 °F 44.4 °F 30.00 in Calm     91 % 0.00 in 0 W/m2
23:10 47.1 °F 44.6 °F 30.00 in Calm     91 % 0.00 in 0 W/m2
23:15 47.1 °F 44.6 °F 30.00 in Calm   1.0 mph 91 % 0.00 in 0 W/m2
23:20 47.3 °F 44.8 °F 30.00 in Calm   2.0 mph 91 % 0.00 in 0 W/m2
23:25 47.3 °F 44.8 °F 29.99 in SSW 2.0 mph 5.0 mph 91 % 0.00 in 0 W/m2
23:30 47.5 °F 45.0 °F 29.99 in Calm   1.0 mph 91 % 0.00 in 0 W/m2
23:35 47.5 °F 45.0 °F 29.99 in Calm   2.0 mph 91 % 0.00 in 0 W/m2
23:40 47.5 °F 45.0 °F 29.99 in SSW 1.0 mph 3.0 mph 91 % 0.00 in 0 W/m2
23:45 47.5 °F 45.0 °F 29.99 in SSE 3.0 mph 5.0 mph 91 % 0.00 in 0 W/m2
23:50 47.5 °F 45.0 °F 29.99 in SSE 2.0 mph 5.0 mph 91 % 0.00 in 0 W/m2
23:55 47.5 °F 45.0 °F 29.99 in Calm   2.0 mph 91 % 0.00 in 0 W/m2
Delerius-Weather
Compliments of Weather Underground - 2.25 mb

Data updates at regular intervals.